Nickajack Observed Data For Previous 48 Hours

Caption
Day and Hour Reservoir Elevation (behind dam)* Tailwater Elevation (below dam)* Average Hourly Discharge*
9/20/2017 1 AM CDT 634.04 595.62 22,826
9/20/2017 2 AM CDT 633.90 595.53 22,578
9/20/2017 3 AM CDT 633.85 594.82 9,088
9/20/2017 4 AM CDT 633.77 594.63 9,095
9/20/2017 5 AM CDT 633.71 594.57 9,076
9/20/2017 6 AM CDT 633.63 594.60 9,054
9/20/2017 7 AM CDT 633.55 594.63 9,072
9/20/2017 8 AM CDT 633.54 594.69 9,214
9/20/2017 9 AM CDT 633.40 595.44 22,821
9/20/2017 10 AM CDT 633.33 595.91 29,613
9/20/2017 11 AM CDT 633.27 596.42 31,210
9/20/2017 12 PM CDT 633.31 596.57 34,574
9/20/2017 1 PM CDT 633.29 597.05 41,037
9/20/2017 2 PM CDT 633.38 597.31 41,306
9/20/2017 3 PM CDT 633.48 597.33 41,420
9/20/2017 4 PM CDT 633.58 597.44 41,565
9/20/2017 5 PM CDT 633.67 597.42 41,460
9/20/2017 6 PM CDT 633.73 597.42 41,420
9/20/2017 7 PM CDT 633.89 597.42 41,366
9/20/2017 8 PM CDT 634.07 597.43 41,290
9/20/2017 9 PM CDT 634.21 597.41 41,303
9/20/2017 10 PM CDT 634.27 597.44 41,182
9/20/2017 11 PM CDT 634.21 597.11 37,531
9/21/2017 12 AM CDT 634.20 596.39 23,428
9/21/2017 1 AM CDT 634.06 595.59 15,917
9/21/2017 2 AM CDT 633.88 595.27 15,872
9/21/2017 3 AM CDT 633.75 595.12 15,936
9/21/2017 4 AM CDT 633.62 595.04 15,958
9/21/2017 5 AM CDT 633.51 595.03 15,909
9/21/2017 6 AM CDT 633.40 595.04 15,934
9/21/2017 7 AM CDT 633.30 595.05 15,912
9/21/2017 8 AM CDT 633.22 595.16 15,928
9/21/2017 9 AM CDT 633.13 595.15 15,993
9/21/2017 10 AM CDT 632.97 595.61 23,666
9/21/2017 11 AM CDT 632.86 595.72 23,587
9/21/2017 12 PM CDT 632.83 595.72 23,857
9/21/2017 1 PM CDT 632.93 595.74 23,999
9/21/2017 2 PM CDT 632.88 596.26 33,503
9/21/2017 3 PM CDT 632.88 596.44 33,623
9/21/2017 4 PM CDT 632.85 596.52 33,791
9/21/2017 5 PM CDT 632.87 596.56 34,000
9/21/2017 6 PM CDT 632.97 596.58 33,868
9/21/2017 7 PM CDT 633.06 596.60 33,403
9/21/2017 8 PM CDT 633.17 596.59 34,278
9/21/2017 9 PM CDT 633.19 596.63 33,416
9/21/2017 10 PM CDT 633.29 596.04 23,938
9/21/2017 11 PM CDT 633.31 595.84 23,260
9/22/2017 12 AM CDT 633.26 595.25 15,974
9/22/2017 1 AM CDT 633.22 594.44 535
9/22/2017 2 AM CDT 633.17 594.16 0
9/22/2017 3 AM CDT 633.14 594.06 0
9/22/2017 4 AM CDT 633.11 594.17 0
9/22/2017 5 AM CDT 633.11 594.27 0

Elevations are in feet above sea level. Discharges are in cubic feet per second and are reported at the end of the hour.